sensor_id;sensor_type;location;lat;lon;timestamp;temperature;humidity
9179;DHT22;71287;48.414;11.478;2023-08-12T00:00:10;18.00;99.90
9179;DHT22;71287;48.414;11.478;2023-08-12T00:02:38;18.00;99.90
9179;DHT22;71287;48.414;11.478;2023-08-12T00:05:05;17.90;99.90
9179;DHT22;71287;48.414;11.478;2023-08-12T00:07:32;17.90;99.90
9179;DHT22;71287;48.414;11.478;2023-08-12T00:09:59;17.80;99.90
9179;DHT22;71287;48.414;11.478;2023-08-12T00:12:30;17.80;99.90
9179;DHT22;71287;48.414;11.478;2023-08-12T00:14:57;17.70;99.90
9179;DHT22;71287;48.414;11.478;2023-08-12T00:20:15;17.70;99.90
9179;DHT22;71287;48.414;11.478;2023-08-12T00:22:51;17.70;99.90
9179;DHT22;71287;48.414;11.478;2023-08-12T00:25:18;17.60;99.90
9179;DHT22;71287;48.414;11.478;2023-08-12T00:27:46;17.60;99.90
9179;DHT22;71287;48.414;11.478;2023-08-12T00:30:16;17.60;99.90
9179;DHT22;71287;48.414;11.478;2023-08-12T00:32:43;17.60;99.90
9179;DHT22;71287;48.414;11.478;2023-08-12T00:35:10;17.60;99.90
9179;DHT22;71287;48.414;11.478;2023-08-12T00:37:37;17.50;99.90
9179;DHT22;71287;48.414;11.478;2023-08-12T00:40:05;17.50;99.90
9179;DHT22;71287;48.414;11.478;2023-08-12T00:42:32;17.50;99.90
9179;DHT22;71287;48.414;11.478;2023-08-12T00:45:01;17.50;99.90
9179;DHT22;71287;48.414;11.478;2023-08-12T00:47:28;17.50;99.90
9179;DHT22;71287;48.414;11.478;2023-08-12T00:49:56;17.40;99.90
9179;DHT22;71287;48.414;11.478;2023-08-12T00:52:24;17.40;99.90
9179;DHT22;71287;48.414;11.478;2023-08-12T00:54:51;17.40;99.90
9179;DHT22;71287;48.414;11.478;2023-08-12T00:57:19;17.30;99.90
9179;DHT22;71287;48.414;11.478;2023-08-12T00:59:45;17.30;99.90
9179;DHT22;71287;48.414;11.478;2023-08-12T01:02:14;17.30;99.90
9179;DHT22;71287;48.414;11.478;2023-08-12T01:04:40;17.30;99.90
9179;DHT22;71287;48.414;11.478;2023-08-12T01:07:07;17.20;99.90
9179;DHT22;71287;48.414;11.478;2023-08-12T01:09:34;17.20;99.90
9179;DHT22;71287;48.414;11.478;2023-08-12T01:12:04;17.20;99.90
9179;DHT22;71287;48.414;11.478;2023-08-12T01:14:35;17.20;99.90
9179;DHT22;71287;48.414;11.478;2023-08-12T01:17:08;17.10;99.90
9179;DHT22;71287;48.414;11.478;2023-08-12T01:19:40;17.10;99.90
9179;DHT22;71287;48.414;11.478;2023-08-12T01:22:09;17.00;99.90
9179;DHT22;71287;48.414;11.478;2023-08-12T01:24:38;17.00;99.90
9179;DHT22;71287;48.414;11.478;2023-08-12T01:27:06;16.90;99.90
9179;DHT22;71287;48.414;11.478;2023-08-12T01:29:33;16.90;99.90
9179;DHT22;71287;48.414;11.478;2023-08-12T01:32:07;16.90;99.90
9179;DHT22;71287;48.414;11.478;2023-08-12T01:34:40;16.90;99.90
9179;DHT22;71287;48.414;11.478;2023-08-12T01:37:11;16.90;99.90
9179;DHT22;71287;48.414;11.478;2023-08-12T01:39:42;16.80;99.90
9179;DHT22;71287;48.414;11.478;2023-08-12T01:42:10;16.80;99.90
9179;DHT22;71287;48.414;11.478;2023-08-12T01:44:38;16.70;99.90
9179;DHT22;71287;48.414;11.478;2023-08-12T01:47:05;16.70;99.90
9179;DHT22;71287;48.414;11.478;2023-08-12T01:49:32;16.70;99.90
9179;DHT22;71287;48.414;11.478;2023-08-12T01:51:59;16.60;99.90
9179;DHT22;71287;48.414;11.478;2023-08-12T01:54:25;16.60;99.90
9179;DHT22;71287;48.414;11.478;2023-08-12T01:56:54;16.60;99.90
9179;DHT22;71287;48.414;11.478;2023-08-12T01:59:20;16.60;99.90
9179;DHT22;71287;48.414;11.478;2023-08-12T02:01:47;16.50;99.90
9179;DHT22;71287;48.414;11.478;2023-08-12T02:04:14;16.50;99.90
9179;DHT22;71287;48.414;11.478;2023-08-12T02:06:40;16.50;99.90
9179;DHT22;71287;48.414;11.478;2023-08-12T02:09:07;16.50;99.90
9179;DHT22;71287;48.414;11.478;2023-08-12T02:11:34;16.50;99.90
9179;DHT22;71287;48.414;11.478;2023-08-12T02:14:02;16.50;99.90
9179;DHT22;71287;48.414;11.478;2023-08-12T02:16:29;16.50;99.90
9179;DHT22;71287;48.414;11.478;2023-08-12T02:18:56;16.40;99.90
9179;DHT22;71287;48.414;11.478;2023-08-12T02:21:22;16.40;99.90
9179;DHT22;71287;48.414;11.478;2023-08-12T02:23:49;16.40;99.90
9179;DHT22;71287;48.414;11.478;2023-08-12T02:26:16;16.40;99.90
9179;DHT22;71287;48.414;11.478;2023-08-12T02:28:43;16.40;99.90
9179;DHT22;71287;48.414;11.478;2023-08-12T02:31:11;16.30;99.90
9179;DHT22;71287;48.414;11.478;2023-08-12T02:33:37;16.30;99.90
9179;DHT22;71287;48.414;11.478;2023-08-12T02:36:05;16.30;99.90
9179;DHT22;71287;48.414;11.478;2023-08-12T02:38:31;16.30;99.90
9179;DHT22;71287;48.414;11.478;2023-08-12T02:40:58;16.30;99.90
9179;DHT22;71287;48.414;11.478;2023-08-12T02:43:26;16.30;99.90
9179;DHT22;71287;48.414;11.478;2023-08-12T02:45:53;16.20;99.90
9179;DHT22;71287;48.414;11.478;2023-08-12T02:48:21;16.20;99.90
9179;DHT22;71287;48.414;11.478;2023-08-12T02:50:47;16.10;99.90
9179;DHT22;71287;48.414;11.478;2023-08-12T02:53:15;16.10;99.90
9179;DHT22;71287;48.414;11.478;2023-08-12T02:55:42;16.00;99.90
9179;DHT22;71287;48.414;11.478;2023-08-12T02:58:09;16.00;99.90
9179;DHT22;71287;48.414;11.478;2023-08-12T03:00:36;16.00;99.90
9179;DHT22;71287;48.414;11.478;2023-08-12T03:03:03;15.90;99.90
9179;DHT22;71287;48.414;11.478;2023-08-12T03:05:32;15.90;99.90
9179;DHT22;71287;48.414;11.478;2023-08-12T03:07:58;15.90;99.90
9179;DHT22;71287;48.414;11.478;2023-08-12T03:10:27;15.90;99.90
9179;DHT22;71287;48.414;11.478;2023-08-12T03:12:53;15.90;99.90
9179;DHT22;71287;48.414;11.478;2023-08-12T03:15:20;15.90;99.90
9179;DHT22;71287;48.414;11.478;2023-08-12T03:17:47;15.90;99.90
9179;DHT22;71287;48.414;11.478;2023-08-12T03:20:14;15.90;99.90
9179;DHT22;71287;48.414;11.478;2023-08-12T03:22:42;15.90;99.90
9179;DHT22;71287;48.414;11.478;2023-08-12T03:25:09;15.90;99.90
9179;DHT22;71287;48.414;11.478;2023-08-12T03:27:35;15.90;99.90
9179;DHT22;71287;48.414;11.478;2023-08-12T03:30:02;15.90;99.90
9179;DHT22;71287;48.414;11.478;2023-08-12T03:32:30;15.90;99.90
9179;DHT22;71287;48.414;11.478;2023-08-12T03:34:56;15.90;99.90
9179;DHT22;71287;48.414;11.478;2023-08-12T03:37:23;15.90;99.90
9179;DHT22;71287;48.414;11.478;2023-08-12T03:39:51;15.80;99.90
9179;DHT22;71287;48.414;11.478;2023-08-12T03:42:18;15.80;99.90
9179;DHT22;71287;48.414;11.478;2023-08-12T03:44:45;15.80;99.90
9179;DHT22;71287;48.414;11.478;2023-08-12T03:47:12;15.70;99.90
9179;DHT22;71287;48.414;11.478;2023-08-12T03:49:38;15.70;99.90
9179;DHT22;71287;48.414;11.478;2023-08-12T03:52:05;15.70;99.90
9179;DHT22;71287;48.414;11.478;2023-08-12T03:54:33;15.60;99.90
9179;DHT22;71287;48.414;11.478;2023-08-12T03:57:02;15.60;99.90
9179;DHT22;71287;48.414;11.478;2023-08-12T03:59:28;15.60;99.90
9179;DHT22;71287;48.414;11.478;2023-08-12T04:01:55;15.60;99.90
9179;DHT22;71287;48.414;11.478;2023-08-12T04:04:22;15.60;99.90
9179;DHT22;71287;48.414;11.478;2023-08-12T04:06:49;15.60;99.90
9179;DHT22;71287;48.414;11.478;2023-08-12T04:09:17;15.60;99.90
9179;DHT22;71287;48.414;11.478;2023-08-12T04:11:44;15.60;99.90
9179;DHT22;71287;48.414;11.478;2023-08-12T04:14:13;15.60;99.90
9179;DHT22;71287;48.414;11.478;2023-08-12T04:16:39;15.60;99.90
9179;DHT22;71287;48.414;11.478;2023-08-12T04:19:07;15.70;99.90
9179;DHT22;71287;48.414;11.478;2023-08-12T04:21:33;15.70;99.90
9179;DHT22;71287;48.414;11.478;2023-08-12T04:24:00;15.70;99.90
9179;DHT22;71287;48.414;11.478;2023-08-12T04:26:27;15.70;99.90
9179;DHT22;71287;48.414;11.478;2023-08-12T04:28:54;15.80;99.90
9179;DHT22;71287;48.414;11.478;2023-08-12T04:31:22;15.80;99.90
9179;DHT22;71287;48.414;11.478;2023-08-12T04:33:49;15.80;99.90
9179;DHT22;71287;48.414;11.478;2023-08-12T04:36:18;15.80;99.90
9179;DHT22;71287;48.414;11.478;2023-08-12T04:38:45;15.90;99.90
9179;DHT22;71287;48.414;11.478;2023-08-12T04:41:11;15.90;99.90
9179;DHT22;71287;48.414;11.478;2023-08-12T04:43:38;15.90;99.90
9179;DHT22;71287;48.414;11.478;2023-08-12T04:46:05;15.90;99.90
9179;DHT22;71287;48.414;11.478;2023-08-12T04:48:33;15.90;99.90
9179;DHT22;71287;48.414;11.478;2023-08-12T04:51:00;16.00;99.90
9179;DHT22;71287;48.414;11.478;2023-08-12T04:53:28;16.00;99.90
9179;DHT22;71287;48.414;11.478;2023-08-12T04:55:55;16.10;99.90
9179;DHT22;71287;48.414;11.478;2023-08-12T04:58:22;16.20;99.90
9179;DHT22;71287;48.414;11.478;2023-08-12T05:00:50;16.30;99.90
9179;DHT22;71287;48.414;11.478;2023-08-12T05:03:18;16.30;99.90
9179;DHT22;71287;48.414;11.478;2023-08-12T05:05:50;16.40;99.90
9179;DHT22;71287;48.414;11.478;2023-08-12T05:08:17;16.40;99.90
9179;DHT22;71287;48.414;11.478;2023-08-12T05:10:44;16.50;99.90
9179;DHT22;71287;48.414;11.478;2023-08-12T05:13:13;16.70;99.90
9179;DHT22;71287;48.414;11.478;2023-08-12T05:15:39;17.20;99.90
9179;DHT22;71287;48.414;11.478;2023-08-12T05:18:06;18.00;99.90
9179;DHT22;71287;48.414;11.478;2023-08-12T05:20:33;19.00;99.90
9179;DHT22;71287;48.414;11.478;2023-08-12T05:23:01;20.30;99.90
9179;DHT22;71287;48.414;11.478;2023-08-12T05:25:28;21.50;99.90
9179;DHT22;71287;48.414;11.478;2023-08-12T05:27:55;22.60;99.90
9179;DHT22;71287;48.414;11.478;2023-08-12T05:30:21;23.60;99.90
9179;DHT22;71287;48.414;11.478;2023-08-12T05:32:49;24.40;99.90
9179;DHT22;71287;48.414;11.478;2023-08-12T05:35:15;25.30;99.90
9179;DHT22;71287;48.414;11.478;2023-08-12T05:37:42;25.70;99.90
9179;DHT22;71287;48.414;11.478;2023-08-12T05:40:11;26.20;99.80
9179;DHT22;71287;48.414;11.478;2023-08-12T05:42:37;26.70;98.40
9179;DHT22;71287;48.414;11.478;2023-08-12T05:45:05;27.00;97.00
9179;DHT22;71287;48.414;11.478;2023-08-12T05:47:32;27.40;95.80
9179;DHT22;71287;48.414;11.478;2023-08-12T05:49:59;28.00;94.20
9179;DHT22;71287;48.414;11.478;2023-08-12T05:52:27;28.70;92.40
9179;DHT22;71287;48.414;11.478;2023-08-12T05:54:53;29.20;90.20
9179;DHT22;71287;48.414;11.478;2023-08-12T05:57:22;29.70;87.30
9179;DHT22;71287;48.414;11.478;2023-08-12T05:59:48;30.40;83.30
9179;DHT22;71287;48.414;11.478;2023-08-12T06:02:15;30.70;78.70
9179;DHT22;71287;48.414;11.478;2023-08-12T06:04:42;30.60;77.70
9179;DHT22;71287;48.414;11.478;2023-08-12T06:07:09;31.20;75.30
9179;DHT22;71287;48.414;11.478;2023-08-12T06:09:36;31.70;73.10
9179;DHT22;71287;48.414;11.478;2023-08-12T06:12:03;32.00;71.20
9179;DHT22;71287;48.414;11.478;2023-08-12T06:14:31;32.50;69.30
9179;DHT22;71287;48.414;11.478;2023-08-12T06:16:58;32.80;67.50
9179;DHT22;71287;48.414;11.478;2023-08-12T06:19:25;33.10;66.50
9179;DHT22;71287;48.414;11.478;2023-08-12T06:21:52;33.90;64.50
9179;DHT22;71287;48.414;11.478;2023-08-12T06:24:18;34.70;61.90
9179;DHT22;71287;48.414;11.478;2023-08-12T06:26:45;35.50;59.40
9179;DHT22;71287;48.414;11.478;2023-08-12T06:29:12;36.50;57.60
9179;DHT22;71287;48.414;11.478;2023-08-12T06:31:40;37.10;55.10
9179;DHT22;71287;48.414;11.478;2023-08-12T06:34:07;36.60;54.20
9179;DHT22;71287;48.414;11.478;2023-08-12T06:36:34;35.50;54.80
9179;DHT22;71287;48.414;11.478;2023-08-12T06:39:00;34.40;56.10
9179;DHT22;71287;48.414;11.478;2023-08-12T06:41:27;33.80;57.60
9179;DHT22;71287;48.414;11.478;2023-08-12T06:43:54;34.10;58.60
9179;DHT22;71287;48.414;11.478;2023-08-12T06:46:21;35.10;57.50
9179;DHT22;71287;48.414;11.478;2023-08-12T06:48:49;36.20;55.30
9179;DHT22;71287;48.414;11.478;2023-08-12T06:51:16;37.10;53.70
9179;DHT22;71287;48.414;11.478;2023-08-12T06:53:43;38.10;52.30
9179;DHT22;71287;48.414;11.478;2023-08-12T06:56:09;38.80;50.30
9179;DHT22;71287;48.414;11.478;2023-08-12T06:58:36;39.00;48.70
9179;DHT22;71287;48.414;11.478;2023-08-12T07:01:03;39.20;48.00
9179;DHT22;71287;48.414;11.478;2023-08-12T07:03:30;39.70;47.00
9179;DHT22;71287;48.414;11.478;2023-08-12T07:05:59;40.00;46.40
9179;DHT22;71287;48.414;11.478;2023-08-12T07:08:26;40.40;45.70
9179;DHT22;71287;48.414;11.478;2023-08-12T07:10:53;40.90;44.70
9179;DHT22;71287;48.414;11.478;2023-08-12T07:13:20;40.80;44.50
9179;DHT22;71287;48.414;11.478;2023-08-12T07:15:47;41.00;44.20
9179;DHT22;71287;48.414;11.478;2023-08-12T07:18:14;41.50;43.50
9179;DHT22;71287;48.414;11.478;2023-08-12T07:20:41;42.10;43.00
9179;DHT22;71287;48.414;11.478;2023-08-12T07:23:09;42.50;42.20
9179;DHT22;71287;48.414;11.478;2023-08-12T07:25:35;43.00;41.30
9179;DHT22;71287;48.414;11.478;2023-08-12T07:28:03;43.30;40.60
9179;DHT22;71287;48.414;11.478;2023-08-12T07:30:29;43.90;40.60
9179;DHT22;71287;48.414;11.478;2023-08-12T07:32:56;44.40;39.50
9179;DHT22;71287;48.414;11.478;2023-08-12T07:35:23;44.70;39.00
9179;DHT22;71287;48.414;11.478;2023-08-12T07:37:50;45.30;38.10
9179;DHT22;71287;48.414;11.478;2023-08-12T07:40:18;45.40;37.50
9179;DHT22;71287;48.414;11.478;2023-08-12T07:42:45;45.60;37.20
9179;DHT22;71287;48.414;11.478;2023-08-12T07:45:13;45.80;37.50
9179;DHT22;71287;48.414;11.478;2023-08-12T07:47:40;46.10;36.10
9179;DHT22;71287;48.414;11.478;2023-08-12T07:50:07;46.30;35.70
9179;DHT22;71287;48.414;11.478;2023-08-12T07:52:34;46.30;35.50
9179;DHT22;71287;48.414;11.478;2023-08-12T07:55:01;46.20;35.50
9179;DHT22;71287;48.414;11.478;2023-08-12T07:57:29;46.00;35.80
9179;DHT22;71287;48.414;11.478;2023-08-12T07:59:55;45.70;35.60
9179;DHT22;71287;48.414;11.478;2023-08-12T08:02:22;45.30;36.60
9179;DHT22;71287;48.414;11.478;2023-08-12T08:04:49;45.00;37.70
9179;DHT22;71287;48.414;11.478;2023-08-12T08:07:16;44.50;38.00
9179;DHT22;71287;48.414;11.478;2023-08-12T08:09:43;44.30;38.10
9179;DHT22;71287;48.414;11.478;2023-08-12T08:12:10;44.20;38.40
9179;DHT22;71287;48.414;11.478;2023-08-12T08:14:38;44.00;38.30
9179;DHT22;71287;48.414;11.478;2023-08-12T08:17:06;43.30;39.70
9179;DHT22;71287;48.414;11.478;2023-08-12T08:19:33;43.00;39.80
9179;DHT22;71287;48.414;11.478;2023-08-12T08:22:00;43.20;39.30
9179;DHT22;71287;48.414;11.478;2023-08-12T08:24:27;42.60;39.20
9179;DHT22;71287;48.414;11.478;2023-08-12T08:26:53;41.80;40.10
9179;DHT22;71287;48.414;11.478;2023-08-12T08:29:21;40.80;41.20
9179;DHT22;71287;48.414;11.478;2023-08-12T08:31:49;39.60;42.50
9179;DHT22;71287;48.414;11.478;2023-08-12T08:34:16;38.40;44.50
9179;DHT22;71287;48.414;11.478;2023-08-12T08:36:43;37.50;45.90
9179;DHT22;71287;48.414;11.478;2023-08-12T08:39:10;36.40;47.70
9179;DHT22;71287;48.414;11.478;2023-08-12T08:41:38;35.60;49.10
9179;DHT22;71287;48.414;11.478;2023-08-12T08:44:07;34.90;50.10
9179;DHT22;71287;48.414;11.478;2023-08-12T08:46:35;34.30;50.80
9179;DHT22;71287;48.414;11.478;2023-08-12T08:49:04;33.90;52.40
9179;DHT22;71287;48.414;11.478;2023-08-12T08:51:32;33.80;53.40
9179;DHT22;71287;48.414;11.478;2023-08-12T08:53:59;33.80;53.90
9179;DHT22;71287;48.414;11.478;2023-08-12T08:56:30;34.00;53.10
9179;DHT22;71287;48.414;11.478;2023-08-12T08:58:57;34.20;52.80
9179;DHT22;71287;48.414;11.478;2023-08-12T09:01:24;34.30;52.70
9179;DHT22;71287;48.414;11.478;2023-08-12T09:03:52;34.30;53.00
9179;DHT22;71287;48.414;11.478;2023-08-12T09:06:21;34.20;53.40
9179;DHT22;71287;48.414;11.478;2023-08-12T09:08:51;34.20;53.20
9179;DHT22;71287;48.414;11.478;2023-08-12T09:11:19;34.40;54.10
9179;DHT22;71287;48.414;11.478;2023-08-12T09:13:47;34.50;53.40
9179;DHT22;71287;48.414;11.478;2023-08-12T09:16:14;34.50;53.50
9179;DHT22;71287;48.414;11.478;2023-08-12T09:18:42;34.10;54.10
9179;DHT22;71287;48.414;11.478;2023-08-12T09:21:09;33.70;54.90
9179;DHT22;71287;48.414;11.478;2023-08-12T09:23:39;33.30;55.30
9179;DHT22;71287;48.414;11.478;2023-08-12T09:26:17;33.10;56.20
9179;DHT22;71287;48.414;11.478;2023-08-12T09:28:44;32.80;56.10
9179;DHT22;71287;48.414;11.478;2023-08-12T09:31:22;32.90;57.60
9179;DHT22;71287;48.414;11.478;2023-08-12T09:33:50;33.10;58.30
9179;DHT22;71287;48.414;11.478;2023-08-12T09:36:17;33.00;57.30
9179;DHT22;71287;48.414;11.478;2023-08-12T09:38:45;32.90;58.60
9179;DHT22;71287;48.414;11.478;2023-08-12T09:41:12;32.90;57.90
9179;DHT22;71287;48.414;11.478;2023-08-12T09:43:40;33.10;58.40
9179;DHT22;71287;48.414;11.478;2023-08-12T09:46:10;33.20;57.60
9179;DHT22;71287;48.414;11.478;2023-08-12T09:48:38;33.00;56.90
9179;DHT22;71287;48.414;11.478;2023-08-12T09:51:05;32.90;57.20
9179;DHT22;71287;48.414;11.478;2023-08-12T09:53:33;32.80;56.90
9179;DHT22;71287;48.414;11.478;2023-08-12T09:56:06;32.60;57.90
9179;DHT22;71287;48.414;11.478;2023-08-12T09:58:33;32.40;58.20
9179;DHT22;71287;48.414;11.478;2023-08-12T10:01:02;32.20;59.00
9179;DHT22;71287;48.414;11.478;2023-08-12T10:03:30;32.10;59.40
9179;DHT22;71287;48.414;11.478;2023-08-12T10:05:57;32.10;59.00
9179;DHT22;71287;48.414;11.478;2023-08-12T10:08:26;32.20;59.30
9179;DHT22;71287;48.414;11.478;2023-08-12T10:10:53;32.20;59.40
9179;DHT22;71287;48.414;11.478;2023-08-12T10:13:22;32.50;59.60
9179;DHT22;71287;48.414;11.478;2023-08-12T10:15:49;32.80;60.10
9179;DHT22;71287;48.414;11.478;2023-08-12T10:18:18;32.90;58.80
9179;DHT22;71287;48.414;11.478;2023-08-12T10:20:47;32.90;58.80
9179;DHT22;71287;48.414;11.478;2023-08-12T10:23:16;32.80;59.60
9179;DHT22;71287;48.414;11.478;2023-08-12T10:25:44;32.70;59.40
9179;DHT22;71287;48.414;11.478;2023-08-12T10:28:11;32.80;60.10
9179;DHT22;71287;48.414;11.478;2023-08-12T10:30:41;32.90;59.70
9179;DHT22;71287;48.414;11.478;2023-08-12T10:33:08;32.80;60.00
9179;DHT22;71287;48.414;11.478;2023-08-12T10:35:43;32.70;60.60
9179;DHT22;71287;48.414;11.478;2023-08-12T10:38:13;32.80;62.00
9179;DHT22;71287;48.414;11.478;2023-08-12T10:40:40;32.80;61.90
9179;DHT22;71287;48.414;11.478;2023-08-12T10:43:07;32.90;60.60
9179;DHT22;71287;48.414;11.478;2023-08-12T10:45:47;32.90;60.10
9179;DHT22;71287;48.414;11.478;2023-08-12T10:48:19;33.00;59.90
9179;DHT22;71287;48.414;11.478;2023-08-12T10:50:51;32.90;60.00
9179;DHT22;71287;48.414;11.478;2023-08-12T10:53:23;33.00;59.90
9179;DHT22;71287;48.414;11.478;2023-08-12T10:55:50;32.90;60.10
9179;DHT22;71287;48.414;11.478;2023-08-12T10:58:27;32.80;60.90
9179;DHT22;71287;48.414;11.478;2023-08-12T11:00:56;32.60;61.20
9179;DHT22;71287;48.414;11.478;2023-08-12T11:03:23;32.70;61.50
9179;DHT22;71287;48.414;11.478;2023-08-12T11:05:50;32.60;60.10
9179;DHT22;71287;48.414;11.478;2023-08-12T11:08:24;32.60;62.20
9179;DHT22;71287;48.414;11.478;2023-08-12T11:10:55;32.70;61.80
9179;DHT22;71287;48.414;11.478;2023-08-12T11:13:23;32.60;61.20
9179;DHT22;71287;48.414;11.478;2023-08-12T11:15:50;32.60;62.30
9179;DHT22;71287;48.414;11.478;2023-08-12T11:18:19;32.70;62.50
9179;DHT22;71287;48.414;11.478;2023-08-12T11:20:47;32.70;62.70
9179;DHT22;71287;48.414;11.478;2023-08-12T11:23:14;32.60;62.00
9179;DHT22;71287;48.414;11.478;2023-08-12T11:25:43;32.50;63.60
9179;DHT22;71287;48.414;11.478;2023-08-12T11:28:10;32.50;61.70
9179;DHT22;71287;48.414;11.478;2023-08-12T11:30:40;32.40;61.70
9179;DHT22;71287;48.414;11.478;2023-08-12T11:33:08;32.10;61.10
9179;DHT22;71287;48.414;11.478;2023-08-12T11:35:37;32.00;62.50
9179;DHT22;71287;48.414;11.478;2023-08-12T11:38:05;31.90;61.30
9179;DHT22;71287;48.414;11.478;2023-08-12T11:40:34;31.90;62.70
9179;DHT22;71287;48.414;11.478;2023-08-12T11:43:01;32.00;62.00
9179;DHT22;71287;48.414;11.478;2023-08-12T11:45:28;32.20;61.10
9179;DHT22;71287;48.414;11.478;2023-08-12T11:47:55;32.20;63.20
9179;DHT22;71287;48.414;11.478;2023-08-12T11:50:24;32.40;62.00
9179;DHT22;71287;48.414;11.478;2023-08-12T11:52:53;32.50;61.30
9179;DHT22;71287;48.414;11.478;2023-08-12T11:55:20;32.50;61.80
9179;DHT22;71287;48.414;11.478;2023-08-12T11:57:48;32.60;62.30
9179;DHT22;71287;48.414;11.478;2023-08-12T12:00:15;32.70;60.60
9179;DHT22;71287;48.414;11.478;2023-08-12T12:02:47;32.80;62.50
9179;DHT22;71287;48.414;11.478;2023-08-12T12:05:14;32.90;60.40
9179;DHT22;71287;48.414;11.478;2023-08-12T12:07:41;32.90;60.10
9179;DHT22;71287;48.414;11.478;2023-08-12T12:10:12;33.00;58.90
9179;DHT22;71287;48.414;11.478;2023-08-12T12:12:40;33.10;59.30
9179;DHT22;71287;48.414;11.478;2023-08-12T12:15:08;33.10;59.60
9179;DHT22;71287;48.414;11.478;2023-08-12T12:17:39;33.20;58.60
9179;DHT22;71287;48.414;11.478;2023-08-12T12:20:07;33.20;58.90
9179;DHT22;71287;48.414;11.478;2023-08-12T12:22:36;33.30;59.00
9179;DHT22;71287;48.414;11.478;2023-08-12T12:25:07;33.40;57.70
9179;DHT22;71287;48.414;11.478;2023-08-12T12:27:36;33.40;57.80
9179;DHT22;71287;48.414;11.478;2023-08-12T12:30:04;33.30;57.50
9179;DHT22;71287;48.414;11.478;2023-08-12T12:32:31;33.20;58.60
9179;DHT22;71287;48.414;11.478;2023-08-12T12:34:58;33.30;59.20
9179;DHT22;71287;48.414;11.478;2023-08-12T12:37:25;33.30;58.10
9179;DHT22;71287;48.414;11.478;2023-08-12T12:39:52;33.20;57.90
9179;DHT22;71287;48.414;11.478;2023-08-12T12:42:18;33.20;58.00
9179;DHT22;71287;48.414;11.478;2023-08-12T12:44:46;33.20;58.20
9179;DHT22;71287;48.414;11.478;2023-08-12T12:47:13;33.10;59.00
9179;DHT22;71287;48.414;11.478;2023-08-12T12:49:40;33.10;58.70
9179;DHT22;71287;48.414;11.478;2023-08-12T12:52:07;33.00;59.20
9179;DHT22;71287;48.414;11.478;2023-08-12T12:54:34;33.00;59.60
9179;DHT22;71287;48.414;11.478;2023-08-12T12:57:01;32.90;59.60
9179;DHT22;71287;48.414;11.478;2023-08-12T12:59:29;32.90;58.90
9179;DHT22;71287;48.414;11.478;2023-08-12T13:01:57;32.80;59.00
9179;DHT22;71287;48.414;11.478;2023-08-12T13:04:24;32.80;59.20
9179;DHT22;71287;48.414;11.478;2023-08-12T13:06:51;32.70;59.00
9179;DHT22;71287;48.414;11.478;2023-08-12T13:09:18;32.80;59.60
9179;DHT22;71287;48.414;11.478;2023-08-12T13:11:45;32.90;60.00
9179;DHT22;71287;48.414;11.478;2023-08-12T13:14:11;33.00;58.30
9179;DHT22;71287;48.414;11.478;2023-08-12T13:16:38;33.30;58.70
9179;DHT22;71287;48.414;11.478;2023-08-12T13:19:06;33.40;58.10
9179;DHT22;71287;48.414;11.478;2023-08-12T13:21:33;33.60;57.80
9179;DHT22;71287;48.414;11.478;2023-08-12T13:24:00;33.70;58.00
9179;DHT22;71287;48.414;11.478;2023-08-12T13:26:29;33.70;57.40
9179;DHT22;71287;48.414;11.478;2023-08-12T13:28:55;33.70;58.20
9179;DHT22;71287;48.414;11.478;2023-08-12T13:31:22;33.70;57.20
9179;DHT22;71287;48.414;11.478;2023-08-12T13:33:50;33.50;55.70
9179;DHT22;71287;48.414;11.478;2023-08-12T13:36:18;33.30;54.70
9179;DHT22;71287;48.414;11.478;2023-08-12T13:38:45;33.10;55.80
9179;DHT22;71287;48.414;11.478;2023-08-12T13:41:11;32.90;56.40
9179;DHT22;71287;48.414;11.478;2023-08-12T13:43:38;32.80;57.40
9179;DHT22;71287;48.414;11.478;2023-08-12T13:46:05;32.60;56.50
9179;DHT22;71287;48.414;11.478;2023-08-12T13:48:32;32.40;57.90
9179;DHT22;71287;48.414;11.478;2023-08-12T13:50:58;32.30;58.80
9179;DHT22;71287;48.414;11.478;2023-08-12T13:53:27;32.20;58.00
9179;DHT22;71287;48.414;11.478;2023-08-12T13:55:54;32.00;58.50
9179;DHT22;71287;48.414;11.478;2023-08-12T13:58:20;31.90;59.90
9179;DHT22;71287;48.414;11.478;2023-08-12T14:00:47;31.70;61.50
9179;DHT22;71287;48.414;11.478;2023-08-12T14:03:14;31.60;60.20
9179;DHT22;71287;48.414;11.478;2023-08-12T14:05:41;31.50;61.80
9179;DHT22;71287;48.414;11.478;2023-08-12T14:08:08;31.50;62.40
9179;DHT22;71287;48.414;11.478;2023-08-12T14:10:36;31.30;61.60
9179;DHT22;71287;48.414;11.478;2023-08-12T14:13:03;31.30;62.90
9179;DHT22;71287;48.414;11.478;2023-08-12T14:15:32;31.30;65.10
9179;DHT22;71287;48.414;11.478;2023-08-12T14:17:58;31.40;64.30
9179;DHT22;71287;48.414;11.478;2023-08-12T14:20:25;31.50;64.50
9179;DHT22;71287;48.414;11.478;2023-08-12T14:22:52;31.50;63.00
9179;DHT22;71287;48.414;11.478;2023-08-12T14:25:19;31.50;64.00
9179;DHT22;71287;48.414;11.478;2023-08-12T14:27:47;31.50;62.80
9179;DHT22;71287;48.414;11.478;2023-08-12T14:30:14;31.30;63.20
9179;DHT22;71287;48.414;11.478;2023-08-12T14:32:41;31.30;63.80
9179;DHT22;71287;48.414;11.478;2023-08-12T14:35:08;31.20;65.30
9179;DHT22;71287;48.414;11.478;2023-08-12T14:37:35;31.20;66.90
9179;DHT22;71287;48.414;11.478;2023-08-12T14:40:01;31.10;65.80
9179;DHT22;71287;48.414;11.478;2023-08-12T14:42:29;31.00;64.50
9179;DHT22;71287;48.414;11.478;2023-08-12T14:44:57;31.00;65.00
9179;DHT22;71287;48.414;11.478;2023-08-12T14:47:24;30.90;64.30
9179;DHT22;71287;48.414;11.478;2023-08-12T14:49:51;30.80;64.10
9179;DHT22;71287;48.414;11.478;2023-08-12T14:52:19;30.70;64.60
9179;DHT22;71287;48.414;11.478;2023-08-12T14:54:46;30.60;65.60
9179;DHT22;71287;48.414;11.478;2023-08-12T14:57:13;30.50;66.10
9179;DHT22;71287;48.414;11.478;2023-08-12T14:59:40;30.50;66.10
9179;DHT22;71287;48.414;11.478;2023-08-12T15:02:08;30.30;65.20
9179;DHT22;71287;48.414;11.478;2023-08-12T15:04:35;30.20;65.80
9179;DHT22;71287;48.414;11.478;2023-08-12T15:07:02;30.10;65.30
9179;DHT22;71287;48.414;11.478;2023-08-12T15:09:29;30.00;65.60
9179;DHT22;71287;48.414;11.478;2023-08-12T15:11:56;29.90;66.20
9179;DHT22;71287;48.414;11.478;2023-08-12T15:14:23;29.80;66.90
9179;DHT22;71287;48.414;11.478;2023-08-12T15:16:51;29.70;68.00
9179;DHT22;71287;48.414;11.478;2023-08-12T15:19:19;29.70;68.60
9179;DHT22;71287;48.414;11.478;2023-08-12T15:21:46;29.70;68.60
9179;DHT22;71287;48.414;11.478;2023-08-12T15:24:14;29.70;69.10
9179;DHT22;71287;48.414;11.478;2023-08-12T15:26:41;29.60;70.00
9179;DHT22;71287;48.414;11.478;2023-08-12T15:29:08;29.60;70.30
9179;DHT22;71287;48.414;11.478;2023-08-12T15:31:36;29.60;71.00
9179;DHT22;71287;48.414;11.478;2023-08-12T15:34:03;29.60;71.20